Time;durP1;ratioP1;P1;durP2;ratioP2;P2;SDS_P1;SDS_P2;PMS_P1;PMS_P2;Temp;Humidity;BMP_temperature;BMP_pressure;BME280_temperature;BME280_humidity;BME280_pressure;Samples;Min_cycle;Max_cycle;Signal;HPM_P1;HPM_P2
2022/01/23 00:00:46;;;;;;;;;;;5.40;99.90;;;;;;5081143;28;19950;-83
2022/01/23 00:03:19;;;;;;;;;;;5.50;99.90;;;;;;5081258;28;19979;-82
2022/01/23 00:05:46;;;;;;;;;;;5.40;99.90;;;;;;5080211;28;19931;-82
2022/01/23 00:08:14;;;;;;;;;;;5.80;99.90;;;;;;5081430;28;19921;-82
2022/01/23 00:10:40;;;;;;;;;;;5.40;99.90;;;;;;5080513;28;20375;-82
2022/01/23 00:13:14;;;;;;;;;;;5.40;99.90;;;;;;5080438;28;20028;-82
2022/01/23 00:18:24;;;;;;;;;;;5.50;99.90;;;;;;5090178;28;19924;-83
2022/01/23 00:20:49;;;;;;;;;;;5.40;99.90;;;;;;5063642;28;19931;-82
2022/01/23 00:23:29;;;;;;;;;;;5.80;99.90;;;;;;5062804;28;19964;-82
2022/01/23 00:31:24;;;;;;;;;;;5.70;99.90;;;;;;5081191;28;19929;-82
2022/01/23 00:33:51;;;;;;;;;;;5.40;99.90;;;;;;5081262;28;19924;-82
2022/01/23 00:36:17;;;;;;;;;;;5.40;99.90;;;;;;5079946;28;19988;-82
2022/01/23 00:38:43;;;;;;;;;;;5.40;99.90;;;;;;5079656;28;19978;-82
2022/01/23 00:41:08;;;;;;;;;;;5.40;99.90;;;;;;5079488;28;19924;-82
2022/01/23 00:43:36;;;;;;;;;;;5.40;99.90;;;;;;5067483;28;19970;-82
2022/01/23 00:46:37;;;;;;;;;;;5.40;99.90;;;;;;5099382;28;20028;-82
2022/01/23 00:51:23;;;;;;;;;;;5.40;99.90;;;;;;5099335;28;20065;-82
2022/01/23 00:53:48;;;;;;;;;;;5.40;99.90;;;;;;5098933;28;19963;-83
2022/01/23 00:56:14;;;;;;;;;;;5.40;99.90;;;;;;5100986;28;19935;-82
2022/01/23 00:58:39;;;;;;;;;;;5.90;99.90;;;;;;5099870;28;20007;-83
2022/01/23 01:01:05;;;;;;;;;;;5.50;99.90;;;;;;5100028;28;19924;-82
2022/01/23 01:03:31;;;;;;;;;;;5.30;99.90;;;;;;5100598;28;19931;-83
2022/01/23 01:05:56;;;;;;;;;;;5.30;99.90;;;;;;5100201;28;20015;-82
2022/01/23 01:08:22;;;;;;;;;;;5.40;99.90;;;;;;5099515;28;19935;-83
2022/01/23 01:11:30;;;;;;;;;;;5.30;99.90;;;;;;5101078;28;19924;-82
2022/01/23 01:32:48;;;;;;;;;;;5.30;99.90;;;;;;5100215;28;19924;-82
2022/01/23 01:37:48;;;;;;;;;;;5.70;99.90;;;;;;5100057;28;19941;-82
2022/01/23 01:40:13;;;;;;;;;;;5.20;99.90;;;;;;5083303;28;19987;-82
2022/01/23 01:42:39;;;;;;;;;;;5.20;99.90;;;;;;5101447;28;19923;-82
2022/01/23 01:45:05;;;;;;;;;;;5.20;99.90;;;;;;5083208;28;19924;-82
2022/01/23 01:47:31;;;;;;;;;;;5.20;99.90;;;;;;5079133;28;19971;-82
2022/01/23 01:49:56;;;;;;;;;;;5.20;99.90;;;;;;5080837;28;19978;-82
2022/01/23 01:52:22;;;;;;;;;;;5.20;99.90;;;;;;5082126;28;19929;-82
2022/01/23 01:54:58;;;;;;;;;;;5.20;99.90;;;;;;5082534;28;19931;-83
2022/01/23 01:57:28;;;;;;;;;;;5.20;99.90;;;;;;5065914;28;19931;-83
2022/01/23 02:10:45;;;;;;;;;;;5.20;99.90;;;;;;5083427;28;19925;-82
2022/01/23 02:13:13;;;;;;;;;;;5.20;99.90;;;;;;5084097;28;19924;-82
2022/01/23 02:18:32;;;;;;;;;;;5.20;99.90;;;;;;5083822;28;19924;-82
2022/01/23 02:22:32;;;;;;;;;;;5.20;99.90;;;;;;5083845;28;19972;-82
2022/01/23 02:51:45;;;;;;;;;;;5.20;99.90;;;;;;5103654;28;19928;-82
2022/01/23 02:56:55;;;;;;;;;;;5.40;99.90;;;;;;5103707;28;19963;-83
2022/01/23 02:59:24;;;;;;;;;;;5.40;99.90;;;;;;5120736;28;19928;-83
2022/01/23 03:04:26;;;;;;;;;;;5.20;99.90;;;;;;5123637;28;19934;-82
2022/01/23 03:07:11;;;;;;;;;;;5.20;99.90;;;;;;5124328;28;19923;-82
2022/01/23 03:28:05;;;;;;;;;;;5.10;99.90;;;;;;5105669;28;19924;-83
2022/01/23 03:30:39;;;;;;;;;;;5.00;99.90;;;;;;5105354;28;19962;-83
2022/01/23 03:33:04;;;;;;;;;;;5.00;99.90;;;;;;5105361;28;19930;-82
2022/01/23 03:35:30;;;;;;;;;;;5.00;99.90;;;;;;5105179;28;19979;-82
2022/01/23 03:37:56;;;;;;;;;;;5.00;99.90;;;;;;5105357;28;19928;-82
2022/01/23 03:40:22;;;;;;;;;;;4.90;99.90;;;;;;5104669;28;19963;-82
2022/01/23 03:42:55;;;;;;;;;;;4.90;99.90;;;;;;5104889;28;19969;-82
2022/01/23 03:50:30;;;;;;;;;;;4.80;99.90;;;;;;5064284;28;20015;-82
2022/01/23 03:52:55;;;;;;;;;;;4.80;99.90;;;;;;5064672;28;19970;-83
2022/01/23 03:55:21;;;;;;;;;;;4.80;99.90;;;;;;5064419;28;19928;-82
2022/01/23 03:57:46;;;;;;;;;;;4.80;99.90;;;;;;5064119;28;19924;-82
2022/01/23 04:00:15;;;;;;;;;;;4.80;99.90;;;;;;5064803;28;19932;-82
2022/01/23 04:02:41;;;;;;;;;;;4.80;99.90;;;;;;5064924;28;19924;-82
2022/01/23 04:05:06;;;;;;;;;;;4.80;99.90;;;;;;5063280;28;19931;-82
2022/01/23 04:07:34;;;;;;;;;;;4.80;99.90;;;;;;5064433;28;19929;-82
2022/01/23 04:09:59;;;;;;;;;;;4.80;99.90;;;;;;5064341;28;19924;-82
2022/01/23 04:12:45;;;;;;;;;;;4.80;99.90;;;;;;5064029;28;19951;-82
2022/01/23 04:15:28;;;;;;;;;;;4.70;99.90;;;;;;5082250;28;19955;-82
2022/01/23 04:34:16;;;;;;;;;;;4.80;99.90;;;;;;5082572;28;19925;-83
2022/01/23 05:01:53;;;;;;;;;;;4.80;99.90;;;;;;5039303;28;19925;-82
2022/01/23 05:04:28;;;;;;;;;;;4.80;99.90;;;;;;5023810;28;20378;-82
2022/01/23 05:07:06;;;;;;;;;;;4.80;99.90;;;;;;5023744;28;19925;-82
2022/01/23 05:09:32;;;;;;;;;;;4.90;99.90;;;;;;5024171;28;19925;-82
2022/01/23 05:12:02;;;;;;;;;;;5.00;99.90;;;;;;5039002;28;19925;-82
2022/01/23 05:14:32;;;;;;;;;;;4.80;99.90;;;;;;5022692;28;19952;-82
2022/01/23 05:16:58;;;;;;;;;;;5.00;99.90;;;;;;5022682;28;19925;-82
2022/01/23 05:19:24;;;;;;;;;;;4.80;99.90;;;;;;5039895;28;20456;-82
2022/01/23 05:24:36;;;;;;;;;;;4.80;99.90;;;;;;5091182;28;20427;-82
2022/01/23 05:27:03;;;;;;;;;;;5.00;99.90;;;;;;5122568;28;19924;-82
2022/01/23 05:29:28;;;;;;;;;;;4.70;99.90;;;;;;5103495;28;20386;-82
2022/01/23 05:31:54;;;;;;;;;;;5.00;99.90;;;;;;5104104;28;19924;-82
2022/01/23 05:34:23;;;;;;;;;;;4.60;99.90;;;;;;5104640;28;20346;-82
2022/01/23 05:36:49;;;;;;;;;;;4.60;99.90;;;;;;5123014;28;19923;-82
2022/01/23 05:39:18;;;;;;;;;;;4.60;99.90;;;;;;5104421;28;19923;-82
2022/01/23 05:41:44;;;;;;;;;;;4.60;99.90;;;;;;5122434;28;19985;-82
2022/01/23 05:44:09;;;;;;;;;;;4.60;99.90;;;;;;5104088;28;19924;-82
2022/01/23 05:46:35;;;;;;;;;;;4.60;99.90;;;;;;5104234;28;20305;-82
2022/01/23 05:49:01;;;;;;;;;;;4.50;99.90;;;;;;5122980;28;19923;-82
2022/01/23 05:51:26;;;;;;;;;;;4.50;99.90;;;;;;5122723;28;19928;-82
2022/01/23 05:53:52;;;;;;;;;;;4.60;99.90;;;;;;5122825;28;20293;-82
2022/01/23 05:56:18;;;;;;;;;;;4.50;99.90;;;;;;5103871;28;20413;-82
2022/01/23 05:58:44;;;;;;;;;;;4.50;99.90;;;;;;5103543;28;19931;-82
2022/01/23 06:01:10;;;;;;;;;;;4.50;99.90;;;;;;5103800;28;19942;-82
2022/01/23 06:03:35;;;;;;;;;;;4.50;99.90;;;;;;5104041;28;19947;-82
2022/01/23 06:06:01;;;;;;;;;;;4.40;99.90;;;;;;5103875;28;19924;-82
2022/01/23 06:08:26;;;;;;;;;;;4.40;99.90;;;;;;5104517;28;19924;-82
2022/01/23 06:10:58;;;;;;;;;;;4.40;99.90;;;;;;5108080;28;19934;-82
2022/01/23 06:13:24;;;;;;;;;;;4.40;99.90;;;;;;5113651;28;19924;-82
2022/01/23 06:15:50;;;;;;;;;;;4.40;99.90;;;;;;5112665;28;20282;-82
2022/01/23 06:18:16;;;;;;;;;;;4.50;99.90;;;;;;5110212;28;19926;-82
2022/01/23 06:20:41;;;;;;;;;;;4.40;99.90;;;;;;5112292;28;19931;-82
2022/01/23 06:23:07;;;;;;;;;;;4.40;99.90;;;;;;5109602;28;19928;-82
2022/01/23 06:25:35;;;;;;;;;;;4.50;99.90;;;;;;5105255;28;19935;-82
2022/01/23 06:28:05;;;;;;;;;;;4.50;99.90;;;;;;5123273;28;19924;-82
2022/01/23 06:30:32;;;;;;;;;;;4.40;99.90;;;;;;5123622;28;19919;-82
2022/01/23 06:32:57;;;;;;;;;;;4.40;99.90;;;;;;5123187;28;20354;-82
2022/01/23 06:35:23;;;;;;;;;;;4.90;99.90;;;;;;5104579;28;19924;-82
2022/01/23 06:37:48;;;;;;;;;;;4.40;99.90;;;;;;5122588;28;20400;-82
2022/01/23 06:40:14;;;;;;;;;;;4.40;99.90;;;;;;5107970;28;20399;-82
2022/01/23 06:42:39;;;;;;;;;;;4.40;99.90;;;;;;5126879;28;19924;-82
2022/01/23 06:45:05;;;;;;;;;;;4.40;99.90;;;;;;5107808;28;19924;-82
2022/01/23 06:47:31;;;;;;;;;;;4.40;99.90;;;;;;5087402;28;19924;-82
2022/01/23 06:49:57;;;;;;;;;;;4.40;99.90;;;;;;5070948;28;19924;-82
2022/01/23 06:52:23;;;;;;;;;;;4.40;99.90;;;;;;5086823;28;19924;-82
2022/01/23 06:54:49;;;;;;;;;;;4.40;99.90;;;;;;5106174;28;19931;-82
2022/01/23 06:57:14;;;;;;;;;;;4.40;99.90;;;;;;5105908;28;20336;-82
2022/01/23 06:59:40;;;;;;;;;;;4.40;99.90;;;;;;5084598;28;19929;-82
2022/01/23 07:02:06;;;;;;;;;;;4.50;99.90;;;;;;5085378;28;19925;-82
2022/01/23 07:04:31;;;;;;;;;;;4.50;99.90;;;;;;5083806;28;19951;-82
2022/01/23 07:06:57;;;;;;;;;;;4.40;99.90;;;;;;5085752;28;19924;-82
2022/01/23 07:09:23;;;;;;;;;;;4.50;99.90;;;;;;5083974;28;19928;-82
2022/01/23 07:11:48;;;;;;;;;;;4.50;99.90;;;;;;5085410;28;20433;-82
2022/01/23 07:14:14;;;;;;;;;;;4.50;99.90;;;;;;5083953;28;19982;-82
2022/01/23 07:16:39;;;;;;;;;;;4.50;99.90;;;;;;5083734;28;19928;-82
2022/01/23 07:19:05;;;;;;;;;;;4.50;99.90;;;;;;5083792;28;19925;-82
2022/01/23 07:21:30;;;;;;;;;;;4.50;99.90;;;;;;5084090;28;19947;-82
2022/01/23 07:23:56;;;;;;;;;;;4.50;99.90;;;;;;5084796;28;20371;-82
2022/01/23 07:26:24;;;;;;;;;;;4.50;99.90;;;;;;5085832;28;20376;-82
2022/01/23 07:28:51;;;;;;;;;;;4.50;99.90;;;;;;5083647;28;20051;-82
2022/01/23 07:31:30;;;;;;;;;;;4.50;99.90;;;;;;5085110;28;19925;-82
2022/01/23 07:33:57;;;;;;;;;;;4.50;99.90;;;;;;5082898;28;20354;-82
2022/01/23 07:36:22;;;;;;;;;;;4.60;99.90;;;;;;5083374;28;19928;-82
2022/01/23 07:38:48;;;;;;;;;;;4.60;99.90;;;;;;5067287;28;19946;-82
2022/01/23 07:41:13;;;;;;;;;;;4.60;99.90;;;;;;5084663;28;19925;-82
2022/01/23 07:43:39;;;;;;;;;;;4.60;99.90;;;;;;5082788;28;19984;-82
2022/01/23 07:46:04;;;;;;;;;;;4.70;99.90;;;;;;5085645;28;19988;-82
2022/01/23 07:48:30;;;;;;;;;;;4.60;99.90;;;;;;5065805;28;19984;-82
2022/01/23 07:50:55;;;;;;;;;;;4.60;99.90;;;;;;5083076;28;19971;-82
2022/01/23 07:53:21;;;;;;;;;;;4.70;99.90;;;;;;5077611;28;19931;-83
2022/01/23 07:55:46;;;;;;;;;;;4.70;99.90;;;;;;5079186;28;19924;-83
2022/01/23 07:58:15;;;;;;;;;;;4.70;99.90;;;;;;5078033;28;19928;-83
2022/01/23 08:00:41;;;;;;;;;;;4.70;99.90;;;;;;5042446;28;19932;-83
2022/01/23 08:03:07;;;;;;;;;;;4.70;99.90;;;;;;5041637;28;19924;-84
2022/01/23 08:05:32;;;;;;;;;;;4.70;99.90;;;;;;5037494;28;19928;-84
2022/01/23 08:07:58;;;;;;;;;;;4.80;99.90;;;;;;5037204;28;20019;-84
2022/01/23 08:10:23;;;;;;;;;;;4.80;99.90;;;;;;5037378;28;20373;-83
2022/01/23 08:12:49;;;;;;;;;;;4.70;99.90;;;;;;5037137;28;19925;-83
2022/01/23 08:15:15;;;;;;;;;;;4.80;99.90;;;;;;5054338;28;19925;-83
2022/01/23 08:17:41;;;;;;;;;;;4.80;99.90;;;;;;5036587;28;20338;-84
2022/01/23 08:20:07;;;;;;;;;;;4.90;99.90;;;;;;5037168;28;19924;-84
2022/01/23 08:22:33;;;;;;;;;;;4.90;99.90;;;;;;5036987;28;19929;-84
2022/01/23 08:25:01;;;;;;;;;;;4.90;99.90;;;;;;5036923;28;19924;-83
2022/01/23 08:27:27;;;;;;;;;;;4.90;99.90;;;;;;5036656;28;20393;-83
2022/01/23 08:29:52;;;;;;;;;;;4.90;99.90;;;;;;5037201;28;19928;-84
2022/01/23 08:32:18;;;;;;;;;;;4.90;99.90;;;;;;5036523;28;20019;-84
2022/01/23 08:34:43;;;;;;;;;;;4.90;99.90;;;;;;5036567;28;20339;-84
2022/01/23 08:37:09;;;;;;;;;;;5.00;99.90;;;;;;5037284;28;19924;-84
2022/01/23 08:39:36;;;;;;;;;;;5.00;99.90;;;;;;5036481;28;19987;-84
2022/01/23 08:42:03;;;;;;;;;;;5.40;99.90;;;;;;5036431;28;20511;-83
2022/01/23 08:44:29;;;;;;;;;;;5.00;99.90;;;;;;5049255;28;20010;-84
2022/01/23 08:46:54;;;;;;;;;;;5.30;99.90;;;;;;5056629;28;20062;-84
2022/01/23 08:49:21;;;;;;;;;;;5.10;99.90;;;;;;5056283;28;19954;-84
2022/01/23 08:51:47;;;;;;;;;;;5.20;99.90;;;;;;5039646;28;19924;-84
2022/01/23 08:54:13;;;;;;;;;;;5.10;99.90;;;;;;5056135;28;20017;-84
2022/01/23 08:56:39;;;;;;;;;;;5.10;99.90;;;;;;5056579;28;19968;-84
2022/01/23 08:59:05;;;;;;;;;;;5.20;99.90;;;;;;5069378;28;20366;-84
2022/01/23 09:01:30;;;;;;;;;;;5.20;99.90;;;;;;5096328;28;19923;-84
2022/01/23 09:03:56;;;;;;;;;;;5.20;99.90;;;;;;5115177;28;19919;-84
2022/01/23 09:06:22;;;;;;;;;;;5.50;99.90;;;;;;5096325;28;20014;-83
2022/01/23 09:08:48;;;;;;;;;;;5.30;99.90;;;;;;5096533;28;19927;-84
2022/01/23 09:11:25;;;;;;;;;;;5.30;99.90;;;;;;5114710;28;19923;-84
2022/01/23 09:14:05;;;;;;;;;;;5.40;99.90;;;;;;5079565;28;20424;-85
2022/01/23 09:16:31;;;;;;;;;;;5.80;99.90;;;;;;5096679;28;19978;-85
2022/01/23 09:18:57;;;;;;;;;;;5.40;99.90;;;;;;5079334;28;19923;-84
2022/01/23 09:21:22;;;;;;;;;;;5.50;99.90;;;;;;5079501;28;19928;-84
2022/01/23 09:23:48;;;;;;;;;;;5.50;99.90;;;;;;5099758;28;19924;-84
2022/01/23 09:26:17;;;;;;;;;;;5.50;99.90;;;;;;5118420;28;19923;-84
2022/01/23 09:28:44;;;;;;;;;;;5.50;99.90;;;;;;5093060;28;19936;-84
2022/01/23 09:31:12;;;;;;;;;;;5.50;99.90;;;;;;5096363;28;19924;-84
2022/01/23 09:33:37;;;;;;;;;;;5.60;99.90;;;;;;5096056;28;19924;-84
2022/01/23 09:36:03;;;;;;;;;;;5.60;99.90;;;;;;5079256;28;20014;-84
2022/01/23 09:38:28;;;;;;;;;;;5.60;99.90;;;;;;5095954;28;19923;-84
2022/01/23 09:40:56;;;;;;;;;;;5.70;99.90;;;;;;5096293;28;19924;-84
2022/01/23 09:43:23;;;;;;;;;;;6.20;99.90;;;;;;5092304;28;20283;-84
2022/01/23 09:45:51;;;;;;;;;;;6.20;99.90;;;;;;5058724;28;19924;-84
2022/01/23 09:48:17;;;;;;;;;;;6.00;99.90;;;;;;5075978;28;19931;-84
2022/01/23 09:50:44;;;;;;;;;;;5.70;99.90;;;;;;5058945;28;19928;-84
2022/01/23 09:53:11;;;;;;;;;;;5.70;99.90;;;;;;5075532;28;19970;-84
2022/01/23 09:55:37;;;;;;;;;;;5.80;99.90;;;;;;5058599;28;19924;-84
2022/01/23 09:58:03;;;;;;;;;;;5.80;99.90;;;;;;5058829;28;19932;-84
2022/01/23 10:00:30;;;;;;;;;;;6.10;99.90;;;;;;5075248;28;20371;-84
2022/01/23 10:02:57;;;;;;;;;;;5.80;99.90;;;;;;5075894;28;20290;-84
2022/01/23 10:05:22;;;;;;;;;;;5.90;99.90;;;;;;5058791;28;19962;-84
2022/01/23 10:07:48;;;;;;;;;;;5.90;99.90;;;;;;5075792;28;19974;-84
2022/01/23 10:10:19;;;;;;;;;;;5.90;99.90;;;;;;5076035;28;20321;-84
2022/01/23 10:12:54;;;;;;;;;;;6.10;99.90;;;;;;5060808;28;19928;-84
2022/01/23 10:15:20;;;;;;;;;;;5.90;99.90;;;;;;5079371;28;19924;-84
2022/01/23 10:17:46;;;;;;;;;;;6.00;99.90;;;;;;5062528;28;19928;-84
2022/01/23 10:20:13;;;;;;;;;;;6.60;99.90;;;;;;5079172;28;19931;-84
2022/01/23 10:22:41;;;;;;;;;;;6.10;99.90;;;;;;5079069;28;19930;-84
2022/01/23 10:25:11;;;;;;;;;;;6.10;99.90;;;;;;5097432;28;19924;-84
2022/01/23 10:27:59;;;;;;;;;;;6.20;99.90;;;;;;5097560;28;19947;-84
2022/01/23 10:30:25;;;;;;;;;;;6.20;99.90;;;;;;5079000;28;19924;-84
2022/01/23 10:33:00;;;;;;;;;;;6.20;99.90;;;;;;5078963;28;20411;-84
2022/01/23 10:35:26;;;;;;;;;;;6.30;99.90;;;;;;5078701;28;20397;-84
2022/01/23 10:37:52;;;;;;;;;;;6.30;99.90;;;;;;5078658;28;19924;-84
2022/01/23 10:40:21;;;;;;;;;;;6.90;99.90;;;;;;5079032;28;20383;-84
2022/01/23 10:48:35;;;;;;;;;;;6.40;99.90;;;;;;5099110;28;20283;-84
2022/01/23 10:51:12;;;;;;;;;;;6.40;99.90;;;;;;5098903;28;19924;-84
2022/01/23 10:53:55;;;;;;;;;;;6.50;99.90;;;;;;5098985;28;20296;-84
2022/01/23 10:56:20;;;;;;;;;;;6.60;99.90;;;;;;5098817;28;19985;-84
2022/01/23 10:58:55;;;;;;;;;;;6.60;99.90;;;;;;5081476;28;19962;-84
2022/01/23 11:01:21;;;;;;;;;;;6.60;99.90;;;;;;5098573;28;20437;-84
2022/01/23 11:04:02;;;;;;;;;;;6.60;99.90;;;;;;5098617;28;20010;-84
2022/01/23 11:06:27;;;;;;;;;;;6.70;99.90;;;;;;5098381;28;19932;-84
2022/01/23 11:09:11;;;;;;;;;;;6.70;99.90;;;;;;5098199;28;20009;-84
2022/01/23 11:11:43;;;;;;;;;;;6.70;99.90;;;;;;5098463;28;20297;-84
2022/01/23 11:19:46;;;;;;;;;;;6.80;99.90;;;;;;5098003;28;19924;-84
2022/01/23 11:22:30;;;;;;;;;;;6.80;99.90;;;;;;5098261;28;19973;-84
2022/01/23 11:25:01;;;;;;;;;;;6.70;99.90;;;;;;5080712;28;19923;-85
2022/01/23 11:27:30;;;;;;;;;;;7.10;99.90;;;;;;5080965;28;19931;-85
2022/01/23 11:30:07;;;;;;;;;;;6.80;99.90;;;;;;5098103;28;20347;-84
2022/01/23 11:32:37;;;;;;;;;;;6.80;99.90;;;;;;5097698;28;19932;-84
2022/01/23 11:35:07;;;;;;;;;;;6.80;99.90;;;;;;5116504;28;19938;-85
2022/01/23 11:37:34;;;;;;;;;;;6.80;99.90;;;;;;5098260;28;20005;-85
2022/01/23 11:40:06;;;;;;;;;;;6.80;99.90;;;;;;5097976;28;19923;-84
2022/01/23 11:51:07;;;;;;;;;;;6.80;99.90;;;;;;5097437;28;19920;-84
2022/01/23 11:53:51;;;;;;;;;;;7.10;99.90;;;;;;5080399;28;19932;-85
2022/01/23 11:56:43;;;;;;;;;;;6.80;99.90;;;;;;5097427;28;19930;-85
2022/01/23 11:59:20;;;;;;;;;;;6.90;99.90;;;;;;5097367;28;19924;-84
2022/01/23 12:01:46;;;;;;;;;;;6.80;99.90;;;;;;5097042;28;19923;-84
2022/01/23 12:04:21;;;;;;;;;;;6.90;99.90;;;;;;5097304;28;20362;-84
2022/01/23 12:07:05;;;;;;;;;;;6.90;99.90;;;;;;5097434;28;19924;-84
2022/01/23 12:09:31;;;;;;;;;;;6.90;99.90;;;;;;5115948;28;20285;-87
2022/01/23 12:12:19;;;;;;;;;;;6.90;99.90;;;;;;5080968;28;19923;-85
2022/01/23 12:17:12;;;;;;;;;;;6.90;99.90;;;;;;5097322;28;19919;-84
2022/01/23 12:19:40;;;;;;;;;;;6.90;99.90;;;;;;5080298;28;20354;-84
2022/01/23 12:22:36;;;;;;;;;;;6.90;99.90;;;;;;5080186;28;20064;-84
2022/01/23 12:25:06;;;;;;;;;;;6.90;99.90;;;;;;5015960;28;20380;-84
2022/01/23 12:27:32;;;;;;;;;;;6.90;99.90;;;;;;4999633;28;19963;-84
2022/01/23 12:30:18;;;;;;;;;;;7.50;99.90;;;;;;5030797;28;19926;-84
2022/01/23 12:32:43;;;;;;;;;;;7.40;99.90;;;;;;5005502;28;20012;-84
2022/01/23 12:35:11;;;;;;;;;;;6.90;99.90;;;;;;5015241;28;20016;-84
2022/01/23 12:37:55;;;;;;;;;;;6.90;99.90;;;;;;4999051;28;19927;-84
2022/01/23 12:40:34;;;;;;;;;;;7.00;99.90;;;;;;5015713;28;19925;-84
2022/01/23 12:43:15;;;;;;;;;;;6.90;99.90;;;;;;5031788;28;19932;-84
2022/01/23 12:45:43;;;;;;;;;;;6.90;99.90;;;;;;4996256;28;19933;-84
2022/01/23 12:48:30;;;;;;;;;;;6.90;99.90;;;;;;4996019;28;19929;-84
2022/01/23 12:50:55;;;;;;;;;;;6.90;99.90;;;;;;4996307;28;19932;-84
2022/01/23 12:53:21;;;;;;;;;;;6.90;99.90;;;;;;4995803;28;20367;-84
2022/01/23 12:56:04;;;;;;;;;;;6.90;99.90;;;;;;4979685;28;19926;-84
2022/01/23 12:58:32;;;;;;;;;;;6.90;99.90;;;;;;5012665;28;19925;-84
2022/01/23 13:00:59;;;;;;;;;;;7.20;99.90;;;;;;5035072;28;20022;-84
2022/01/23 13:03:25;;;;;;;;;;;6.90;99.90;;;;;;5076249;28;19990;-84
2022/01/23 13:05:51;;;;;;;;;;;6.90;99.90;;;;;;5059932;28;20248;-84
2022/01/23 13:08:20;;;;;;;;;;;7.00;99.90;;;;;;5059309;28;19939;-84
2022/01/23 13:13:39;;;;;;;;;;;7.00;99.90;;;;;;5075839;28;19931;-84
2022/01/23 13:18:42;;;;;;;;;;;7.00;99.90;;;;;;5097231;28;19957;-84
2022/01/23 13:32:22;;;;;;;;;;;7.00;99.90;;;;;;5076886;28;19924;-84
2022/01/23 13:34:58;;;;;;;;;;;7.10;99.90;;;;;;5060237;28;20382;-84
2022/01/23 13:37:25;;;;;;;;;;;7.00;99.90;;;;;;5076877;28;19960;-85
2022/01/23 13:39:56;;;;;;;;;;;7.00;99.90;;;;;;5077135;28;19931;-84
2022/01/23 13:48:24;;;;;;;;;;;6.90;99.90;;;;;;5099275;28;20358;-84
2022/01/23 13:59:25;;;;;;;;;;;7.00;99.90;;;;;;5100739;28;19923;-84
2022/01/23 14:02:08;;;;;;;;;;;6.90;99.90;;;;;;5083270;28;20020;-84
2022/01/23 14:04:39;;;;;;;;;;;6.90;99.90;;;;;;5100608;28;19924;-84
2022/01/23 14:07:07;;;;;;;;;;;6.90;99.90;;;;;;5118158;28;20002;-84
2022/01/23 14:09:38;;;;;;;;;;;6.90;99.90;;;;;;5099688;28;20416;-84
2022/01/23 14:12:08;;;;;;;;;;;6.90;99.90;;;;;;5099772;28;19924;-84
2022/01/23 14:14:33;;;;;;;;;;;6.90;99.90;;;;;;5099777;28;20373;-84
2022/01/23 14:17:10;;;;;;;;;;;7.50;99.90;;;;;;5099590;28;19927;-84
2022/01/23 14:19:36;;;;;;;;;;;6.90;99.90;;;;;;5082783;28;19924;-84
2022/01/23 14:22:01;;;;;;;;;;;6.80;99.90;;;;;;5083002;28;19920;-84
2022/01/23 14:24:29;;;;;;;;;;;6.90;99.90;;;;;;5082685;28;19923;-84
2022/01/23 14:27:07;;;;;;;;;;;6.80;99.90;;;;;;5118028;28;19923;-84
2022/01/23 14:29:48;;;;;;;;;;;6.80;99.90;;;;;;5099467;28;19924;-84
2022/01/23 14:32:20;;;;;;;;;;;6.80;99.90;;;;;;5099411;28;19989;-84
2022/01/23 14:34:46;;;;;;;;;;;7.40;99.90;;;;;;5117717;28;19931;-84
2022/01/23 14:37:11;;;;;;;;;;;6.80;99.90;;;;;;5099375;28;20026;-84
2022/01/23 14:39:37;;;;;;;;;;;6.80;99.90;;;;;;5099540;28;19945;-84
2022/01/23 14:42:11;;;;;;;;;;;7.20;99.90;;;;;;5099256;28;19927;-84
2022/01/23 14:44:37;;;;;;;;;;;6.70;99.90;;;;;;5084651;28;19919;-84
2022/01/23 14:47:02;;;;;;;;;;;6.70;99.90;;;;;;5061840;28;20418;-84
2022/01/23 14:49:30;;;;;;;;;;;6.70;99.90;;;;;;5078632;28;19927;-84
2022/01/23 14:51:57;;;;;;;;;;;6.70;99.90;;;;;;5078689;28;19931;-84
2022/01/23 14:54:23;;;;;;;;;;;6.70;99.90;;;;;;5078673;28;20031;-84
2022/01/23 14:56:49;;;;;;;;;;;6.70;99.90;;;;;;5078688;28;20007;-84
2022/01/23 14:59:15;;;;;;;;;;;6.70;99.90;;;;;;5077583;28;20014;-84
2022/01/23 15:01:42;;;;;;;;;;;6.60;99.90;;;;;;5078205;28;19964;-84
2022/01/23 15:04:08;;;;;;;;;;;6.70;99.90;;;;;;5078222;28;19924;-84
2022/01/23 15:06:34;;;;;;;;;;;6.60;99.90;;;;;;5061733;28;20313;-84
2022/01/23 15:09:10;;;;;;;;;;;6.60;99.90;;;;;;5096690;28;20267;-84
2022/01/23 15:11:36;;;;;;;;;;;6.70;99.90;;;;;;5078459;28;20317;-84
2022/01/23 15:14:03;;;;;;;;;;;6.60;99.90;;;;;;5061195;28;19950;-84
2022/01/23 15:16:29;;;;;;;;;;;6.60;99.90;;;;;;5078249;28;19977;-84
2022/01/23 15:18:54;;;;;;;;;;;6.70;99.90;;;;;;5061405;28;19924;-84
2022/01/23 15:21:20;;;;;;;;;;;6.60;99.90;;;;;;5078157;28;20019;-84
2022/01/23 15:23:46;;;;;;;;;;;6.60;99.90;;;;;;5078161;28;19935;-84
2022/01/23 15:26:11;;;;;;;;;;;6.60;99.90;;;;;;5077799;28;19932;-84
2022/01/23 15:28:37;;;;;;;;;;;6.60;99.90;;;;;;5077777;28;19924;-84
2022/01/23 15:31:03;;;;;;;;;;;6.50;99.90;;;;;;5077870;28;19976;-84
2022/01/23 15:33:28;;;;;;;;;;;6.50;99.90;;;;;;5095966;28;19931;-84
2022/01/23 15:35:54;;;;;;;;;;;6.50;99.90;;;;;;5078137;28;19982;-84
2022/01/23 15:38:21;;;;;;;;;;;6.50;99.90;;;;;;5061139;28;20500;-84
2022/01/23 15:40:48;;;;;;;;;;;6.50;99.90;;;;;;5077677;28;20019;-84
2022/01/23 15:43:14;;;;;;;;;;;6.50;99.90;;;;;;5080100;28;19928;-84
2022/01/23 15:45:39;;;;;;;;;;;6.80;99.90;;;;;;5081047;28;19927;-84
2022/01/23 15:48:05;;;;;;;;;;;6.50;99.90;;;;;;5097622;28;19923;-84
2022/01/23 15:50:31;;;;;;;;;;;6.40;99.90;;;;;;5098198;28;19920;-84
2022/01/23 15:52:56;;;;;;;;;;;6.40;99.90;;;;;;5097740;28;20394;-84
2022/01/23 15:55:24;;;;;;;;;;;6.40;99.90;;;;;;5097683;28;19923;-84
2022/01/23 15:57:50;;;;;;;;;;;6.40;99.90;;;;;;5097669;28;20300;-84
2022/01/23 16:00:18;;;;;;;;;;;6.40;99.90;;;;;;5115960;28;20019;-84
2022/01/23 16:02:44;;;;;;;;;;;6.40;99.90;;;;;;5097325;28;19924;-84
2022/01/23 16:05:09;;;;;;;;;;;6.40;99.90;;;;;;5116172;28;19924;-84
2022/01/23 16:07:35;;;;;;;;;;;6.40;99.90;;;;;;5097336;28;19931;-84
2022/01/23 16:10:01;;;;;;;;;;;6.40;99.90;;;;;;5097229;28;19924;-84
2022/01/23 16:12:26;;;;;;;;;;;6.40;99.90;;;;;;5109024;28;19924;-84
2022/01/23 16:14:52;;;;;;;;;;;6.60;99.90;;;;;;5115470;28;19931;-85
2022/01/23 16:17:18;;;;;;;;;;;6.30;99.90;;;;;;5098543;28;19972;-85
2022/01/23 16:19:43;;;;;;;;;;;6.30;99.90;;;;;;5080317;28;19924;-84
2022/01/23 16:22:09;;;;;;;;;;;6.20;99.90;;;;;;5097565;28;19985;-86
2022/01/23 16:24:34;;;;;;;;;;;6.20;99.90;;;;;;5098991;28;19935;-83
2022/01/23 16:27:00;;;;;;;;;;;6.20;99.90;;;;;;5081646;28;19931;-83
2022/01/23 16:29:26;;;;;;;;;;;6.20;99.90;;;;;;5098159;28;20359;-85
2022/01/23 16:31:53;;;;;;;;;;;6.60;99.90;;;;;;5082765;28;19946;-83
2022/01/23 16:34:19;;;;;;;;;;;6.20;99.90;;;;;;5098783;28;19931;-83
2022/01/23 16:36:44;;;;;;;;;;;6.20;99.90;;;;;;5117996;28;19924;-83
2022/01/23 16:39:10;;;;;;;;;;;6.20;99.90;;;;;;5116868;28;19930;-83
2022/01/23 16:41:38;;;;;;;;;;;6.20;99.90;;;;;;5098620;28;19924;-83
2022/01/23 16:44:04;;;;;;;;;;;6.10;99.90;;;;;;5116847;28;19946;-83
2022/01/23 16:46:30;;;;;;;;;;;6.20;99.90;;;;;;5098306;28;20358;-83
2022/01/23 16:48:55;;;;;;;;;;;6.10;99.90;;;;;;5098350;28;19923;-83
2022/01/23 16:51:21;;;;;;;;;;;6.40;99.90;;;;;;5118232;28;20027;-83
2022/01/23 16:53:47;;;;;;;;;;;6.10;99.90;;;;;;5113479;28;19923;-83
2022/01/23 16:56:12;;;;;;;;;;;6.10;99.90;;;;;;5097201;28;19959;-83
2022/01/23 16:58:38;;;;;;;;;;;6.10;99.90;;;;;;5109619;28;20282;-83
2022/01/23 17:01:05;;;;;;;;;;;6.10;99.90;;;;;;5098760;28;20294;-83
2022/01/23 17:03:31;;;;;;;;;;;6.10;99.90;;;;;;5098264;28;19930;-83
2022/01/23 17:05:56;;;;;;;;;;;6.10;99.90;;;;;;5115517;28;19920;-83
2022/01/23 17:08:23;;;;;;;;;;;6.10;99.90;;;;;;5115473;28;19927;-83
2022/01/23 17:10:50;;;;;;;;;;;6.10;99.90;;;;;;5096980;28;19919;-83
2022/01/23 17:13:15;;;;;;;;;;;6.10;99.90;;;;;;5096840;28;19924;-83
2022/01/23 17:15:41;;;;;;;;;;;6.10;99.90;;;;;;5096914;28;20334;-83
2022/01/23 17:18:07;;;;;;;;;;;6.10;99.90;;;;;;5097210;28;19947;-83
2022/01/23 17:20:33;;;;;;;;;;;6.10;99.90;;;;;;5115754;28;20271;-83
2022/01/23 17:22:58;;;;;;;;;;;6.10;99.90;;;;;;5096532;28;20263;-83
2022/01/23 17:25:24;;;;;;;;;;;6.00;99.90;;;;;;5096875;28;19924;-83
2022/01/23 17:27:49;;;;;;;;;;;6.00;99.90;;;;;;5097215;28;19928;-83
2022/01/23 17:30:16;;;;;;;;;;;6.00;99.90;;;;;;5097542;28;19924;-83
2022/01/23 17:32:42;;;;;;;;;;;6.00;99.90;;;;;;5097473;28;19924;-83
2022/01/23 17:35:08;;;;;;;;;;;6.00;99.90;;;;;;5115829;28;20453;-83
2022/01/23 17:37:33;;;;;;;;;;;6.00;99.90;;;;;;5116019;28;19930;-83
2022/01/23 17:39:59;;;;;;;;;;;6.00;99.90;;;;;;5097343;28;20019;-83
2022/01/23 17:42:25;;;;;;;;;;;6.00;99.90;;;;;;5116412;28;19931;-83
2022/01/23 17:44:51;;;;;;;;;;;6.00;99.90;;;;;;5064515;28;19924;-83
2022/01/23 17:47:56;;;;;;;;;;;6.00;99.90;;;;;;5095339;28;20390;-83
2022/01/23 17:53:01;;;;;;;;;;;6.00;99.90;;;;;;5016498;28;19939;-83
2022/01/23 17:55:28;;;;;;;;;;;6.00;99.90;;;;;;5032837;28;19929;-83
2022/01/23 17:57:54;;;;;;;;;;;6.00;99.90;;;;;;5016109;28;19932;-83
2022/01/23 18:00:21;;;;;;;;;;;5.90;99.90;;;;;;5031845;28;20414;-83